Time;durP1;ratioP1;P1;durP2;ratioP2;P2;SDS_P1;SDS_P2;PMS_P1;PMS_P2;Temp;Humidity;BMP_temperature;BMP_pressure;BME280_temperature;BME280_humidity;BME280_pressure;Samples;Min_cycle;Max_cycle;Signal;HPM_P1;HPM_P2
2023/07/16 00:00:59;;;;;;;3.43;3.13;;;;;;;19.63;86.68;97750.72;5024279;28;20497;-73
2023/07/16 00:03:25;;;;;;;3.47;3.17;;;;;;;19.63;86.51;97766.38;5026351;28;20503;-74
2023/07/16 00:05:52;;;;;;;3.50;3.20;;;;;;;19.60;86.55;97783.38;5026380;28;20454;-74
2023/07/16 00:08:19;;;;;;;3.37;3.07;;;;;;;19.58;87.32;97763.59;5022627;28;20547;-74
2023/07/16 00:10:47;;;;;;;3.40;2.90;;;;;;;19.53;85.39;97771.81;5018511;28;20495;-74
2023/07/16 00:13:14;;;;;;;2.97;2.77;;;;;;;19.72;86.35;97781.25;5022078;28;20511;-74
2023/07/16 00:15:41;;;;;;;2.40;2.30;;;;;;;19.86;85.57;97776.06;5024240;28;20475;-74
2023/07/16 00:18:07;;;;;;;2.77;2.57;;;;;;;19.69;84.99;97779.88;5022937;28;20836;-74
2023/07/16 00:20:34;;;;;;;3.10;2.90;;;;;;;19.66;85.92;97780.41;5020077;28;20879;-74
2023/07/16 00:23:01;;;;;;;3.30;3.00;;;;;;;19.76;85.80;97783.19;5023116;28;20472;-74
2023/07/16 00:25:28;;;;;;;2.87;2.67;;;;;;;19.73;85.86;97782.91;5022658;28;20456;-74
2023/07/16 00:27:56;;;;;;;3.50;2.73;;;;;;;19.87;84.97;97784.06;5016387;28;20785;-74
2023/07/16 00:30:23;;;;;;;3.03;2.80;;;;;;;19.80;85.79;97772.50;5020599;28;20484;-74
2023/07/16 00:32:50;;;;;;;3.10;2.90;;;;;;;19.73;85.96;97766.44;5023377;28;20483;-74
2023/07/16 00:35:17;;;;;;;2.60;2.40;;;;;;;19.61;86.28;97776.78;5026909;28;20543;-74
2023/07/16 00:37:44;;;;;;;2.30;2.10;;;;;;;19.55;85.88;97775.09;5026208;28;20460;-73
2023/07/16 00:40:12;;;;;;;2.57;2.37;;;;;;;19.49;86.19;97792.63;5026913;28;20470;-74
2023/07/16 00:42:39;;;;;;;2.50;2.30;;;;;;;19.54;85.66;97793.50;5025238;28;20467;-72
2023/07/16 00:45:11;;;;;;;2.50;2.30;;;;;;;19.71;83.99;97793.34;5024258;28;20463;-74
2023/07/16 00:47:38;;;;;;;1.97;1.83;;;;;;;19.75;83.55;97791.72;5022556;28;20824;-74
2023/07/16 00:50:05;;;;;;;2.10;1.90;;;;;;;19.57;83.94;97797.63;5027068;28;20589;-74
2023/07/16 00:52:32;;;;;;;2.00;1.90;;;;;;;19.77;82.73;97790.34;5026406;28;20558;-72
2023/07/16 00:54:59;;;;;;;1.70;1.60;;;;;;;19.79;81.93;97781.84;5027865;28;20467;-74
2023/07/16 00:57:26;;;;;;;2.20;1.93;;;;;;;19.82;81.40;97770.28;5021513;28;20956;-74
2023/07/16 00:59:53;;;;;;;2.37;1.70;;;;;;;19.99;80.61;97779.16;5026196;28;20467;-74
2023/07/16 01:02:21;;;;;;;2.23;1.70;;;;;;;19.67;81.63;97789.47;5026035;28;20934;-73
2023/07/16 01:04:48;;;;;;;2.00;1.67;;;;;;;19.82;80.85;97778.53;5025096;28;20460;-74
2023/07/16 01:07:15;;;;;;;3.37;1.80;;;;;;;20.09;80.67;97787.47;5026565;28;20489;-73
2023/07/16 01:09:43;;;;;;;2.77;1.80;;;;;;;20.02;81.30;97808.84;5023941;28;20963;-74
2023/07/16 01:12:10;;;;;;;1.87;1.77;;;;;;;19.93;81.02;97821.44;5025238;28;20851;-74
2023/07/16 01:14:38;;;;;;;2.63;1.80;;;;;;;19.79;81.73;97826.63;5017146;28;21071;-74
2023/07/16 01:17:08;;;;;;;1.73;1.40;;;;;;;20.02;80.32;97828.09;5026313;28;20463;-74
2023/07/16 01:19:36;;;;;;;1.70;1.60;;;;;;;20.02;80.06;97835.50;5028324;28;20467;-73
2023/07/16 01:22:21;;;;;;;1.60;1.50;;;;;;;19.85;80.42;97838.44;5025470;28;20513;-74
2023/07/16 01:25:14;;;;;;;3.47;1.50;;;;;;;19.94;80.52;97830.50;5023769;28;20851;-73
2023/07/16 01:28:05;;;;;;;2.00;1.43;;;;;;;19.77;80.59;97825.22;5027236;28;20517;-74
2023/07/16 01:30:33;;;;;;;1.83;1.60;;;;;;;19.95;79.42;97834.91;5022399;28;20570;-73
2023/07/16 01:33:01;;;;;;;1.50;1.40;;;;;;;19.77;80.66;97820.56;5023590;28;20490;-73
2023/07/16 01:35:28;;;;;;;1.97;1.80;;;;;;;19.96;80.65;97836.56;5020022;28;20547;-74
2023/07/16 01:37:55;;;;;;;2.60;1.63;;;;;;;19.86;79.52;97848.31;5021685;28;20872;-73
2023/07/16 01:40:22;;;;;;;1.57;1.03;;;;;;;19.67;77.66;97853.44;5020968;28;20454;-73
2023/07/16 01:42:49;;;;;;;1.87;1.23;;;;;;;19.78;77.47;97857.09;5022524;28;20481;-74
2023/07/16 01:45:16;;;;;;;2.03;1.30;;;;;;;19.81;77.31;97873.03;5025558;28;20456;-74
2023/07/16 01:47:51;;;;;;;1.70;1.33;;;;;;;19.87;76.47;97871.94;5028568;28;20536;-74
2023/07/16 01:50:18;;;;;;;1.87;1.50;;;;;;;19.83;76.37;97859.84;5028299;28;20499;-73
2023/07/16 01:52:45;;;;;;;2.20;1.10;;;;;;;19.69;74.19;97848.53;5025624;28;20531;-73
2023/07/16 01:55:12;;;;;;;1.40;1.00;;;;;;;19.44;74.67;97838.19;5026590;28;20975;-73
2023/07/16 01:57:38;;;;;;;1.97;1.30;;;;;;;19.57;71.48;97825.91;5024526;28;21146;-73
2023/07/16 02:00:08;;;;;;;1.40;1.30;;;;;;;19.43;70.84;97814.56;5014131;28;20555;-73
2023/07/16 02:02:35;;;;;;;1.50;1.30;;;;;;;19.39;69.84;97840.88;5019320;28;21002;-73
2023/07/16 02:05:04;;;;;;;1.80;1.37;;;;;;;19.34;69.06;97860.06;5022125;28;20872;-73
2023/07/16 02:07:31;;;;;;;1.73;1.50;;;;;;;19.40;69.38;97871.91;5021299;28;21022;-73
2023/07/16 02:09:58;;;;;;;2.13;1.40;;;;;;;19.37;69.53;97878.75;5021461;28;20836;-73
2023/07/16 02:12:24;;;;;;;1.70;1.53;;;;;;;19.34;70.50;97873.78;5026563;28;20482;-73
2023/07/16 02:14:51;;;;;;;1.20;1.10;;;;;;;19.23;72.66;97863.78;5025882;28;20524;-72
2023/07/16 02:17:18;;;;;;;1.73;1.30;;;;;;;19.32;72.14;97873.22;5014304;28;20488;-73
2023/07/16 02:19:45;;;;;;;2.90;2.00;;;;;;;19.42;70.51;97865.06;5024233;28;20471;-74
2023/07/16 02:22:13;;;;;;;2.70;1.53;;;;;;;19.38;71.72;97858.44;5024192;28;20506;-72
2023/07/16 02:24:40;;;;;;;2.30;1.60;;;;;;;19.32;72.84;97859.47;5022217;28;20450;-73
2023/07/16 02:27:07;;;;;;;2.90;1.33;;;;;;;19.20;74.42;97869.81;5020687;28;20458;-73
2023/07/16 02:29:34;;;;;;;2.80;1.40;;;;;;;19.20;73.08;97860.75;5023643;28;20547;-73
2023/07/16 02:32:01;;;;;;;3.00;1.63;;;;;;;19.20;74.60;97860.75;5023994;28;21013;-73
2023/07/16 02:34:27;;;;;;;3.30;1.57;;;;;;;19.11;73.52;97868.66;5020412;28;20447;-72
2023/07/16 02:36:55;;;;;;;4.13;1.43;;;;;;;19.28;73.51;97877.56;5026265;28;20464;-73
2023/07/16 02:39:24;;;;;;;1.60;1.50;;;;;;;19.21;73.02;97885.19;5029408;28;20531;-73
2023/07/16 02:41:51;;;;;;;2.20;1.60;;;;;;;19.39;71.12;97876.56;5024535;28;20661;-73
2023/07/16 02:44:18;;;;;;;3.33;1.70;;;;;;;19.53;71.27;97876.94;5026082;28;20482;-73
2023/07/16 02:46:45;;;;;;;1.83;1.63;;;;;;;19.36;72.04;97866.09;5028871;28;20463;-73
2023/07/16 02:49:11;;;;;;;4.37;1.67;;;;;;;19.27;72.24;97867.66;5028311;28;20455;-72
2023/07/16 02:51:38;;;;;;;2.00;1.50;;;;;;;19.27;72.53;97856.69;5017605;28;20490;-73
2023/07/16 02:54:05;;;;;;;2.10;1.60;;;;;;;19.01;70.40;97871.28;5021511;28;20455;-72
2023/07/16 02:56:33;;;;;;;2.50;1.87;;;;;;;18.92;69.56;97870.94;5023957;28;20554;-73
2023/07/16 02:59:00;;;;;;;1.60;1.37;;;;;;;19.05;69.65;97865.03;5023943;28;20560;-73
2023/07/16 03:01:27;;;;;;;4.33;1.50;;;;;;;19.08;69.67;97869.16;5021643;28;20479;-72
2023/07/16 03:03:53;;;;;;;1.73;1.63;;;;;;;19.18;69.13;97844.53;5025840;28;20456;-78
2023/07/16 03:06:20;;;;;;;3.00;1.70;;;;;;;19.06;68.16;97874.91;5023168;28;20460;-78
2023/07/16 03:08:48;;;;;;;1.60;1.37;;;;;;;19.18;67.60;97874.72;5014634;28;20543;-77
2023/07/16 03:11:14;;;;;;;5.63;2.03;;;;;;;19.03;69.55;97877.34;5022441;28;21175;-77
2023/07/16 03:13:43;;;;;;;4.00;1.83;;;;;;;18.99;70.72;97887.19;5025758;28;20463;-77
2023/07/16 03:16:09;;;;;;;3.00;1.50;;;;;;;19.17;69.73;97894.22;5023052;28;20529;-77
2023/07/16 03:18:37;;;;;;;1.93;1.60;;;;;;;19.01;69.97;97898.72;5021757;28;20568;-77
2023/07/16 03:21:04;;;;;;;3.10;1.63;;;;;;;18.98;69.69;97911.03;5022881;28;20452;-77
2023/07/16 03:23:31;;;;;;;1.97;1.77;;;;;;;18.98;69.56;97897.31;5023326;28;20463;-77
2023/07/16 03:25:58;;;;;;;2.40;1.47;;;;;;;18.82;70.72;97908.41;5016777;28;20460;-77
2023/07/16 03:28:25;;;;;;;5.70;1.67;;;;;;;18.72;71.63;97911.88;5026709;28;20468;-78
2023/07/16 03:30:53;;;;;;;3.17;1.70;;;;;;;18.79;70.27;97934.44;5028850;28;20522;-73
2023/07/16 03:33:20;;;;;;;2.33;1.70;;;;;;;18.95;71.07;97927.19;5023611;28;20990;-77
2023/07/16 03:35:49;;;;;;;1.73;1.50;;;;;;;18.77;72.51;97921.00;5018127;28;21453;-78
2023/07/16 03:38:16;;;;;;;1.73;1.60;;;;;;;19.04;72.62;97926.47;5021469;28;20464;-78
2023/07/16 03:40:50;;;;;;;2.17;1.80;;;;;;;19.19;74.01;97924.94;5033277;28;20461;-77
2023/07/16 03:43:18;;;;;;;3.10;1.73;;;;;;;18.94;71.98;97955.69;5020749;28;20482;-78
2023/07/16 03:45:45;;;;;;;4.90;2.17;;;;;;;18.72;73.26;97959.31;5030256;28;20978;-77
2023/07/16 03:48:13;;;;;;;2.60;1.80;;;;;;;18.85;75.04;97940.78;5026130;28;20464;-79
2023/07/16 03:50:40;;;;;;;3.70;1.70;;;;;;;18.96;71.19;97953.53;5028456;28;20467;-79
2023/07/16 03:53:07;;;;;;;7.13;2.13;;;;;;;19.16;71.12;97948.28;5028144;28;20480;-77
2023/07/16 03:55:33;;;;;;;3.37;1.83;;;;;;;19.06;72.63;97975.59;5028886;28;20518;-78
2023/07/16 03:58:00;;;;;;;3.27;1.80;;;;;;;18.96;74.18;97983.72;5026717;28;20468;-78
2023/07/16 04:00:27;;;;;;;2.90;1.70;;;;;;;18.85;72.69;97979.19;5018896;28;20460;-78
2023/07/16 04:02:54;;;;;;;3.33;2.20;;;;;;;18.71;70.76;97993.31;5027076;28;20476;-78
2023/07/16 04:05:22;;;;;;;3.60;1.73;;;;;;;18.72;70.66;98005.94;5020731;28;20659;-78
2023/07/16 04:07:49;;;;;;;2.73;1.80;;;;;;;18.77;70.72;98013.38;5027004;28;20566;-78
2023/07/16 04:10:15;;;;;;;4.70;2.20;;;;;;;18.87;70.48;98020.91;5028507;28;20553;-78
2023/07/16 04:12:42;;;;;;;4.23;2.03;;;;;;;18.93;70.10;98014.38;5027159;28;20468;-77
2023/07/16 04:15:10;;;;;;;2.80;2.20;;;;;;;18.64;71.03;98022.00;5024563;28;20543;-77
2023/07/16 04:17:37;;;;;;;4.33;2.20;;;;;;;18.68;71.04;98006.69;5028500;28;20939;-78
2023/07/16 04:20:06;;;;;;;5.80;2.10;;;;;;;18.63;70.82;98001.13;5020748;28;21016;-78
2023/07/16 04:22:34;;;;;;;4.20;1.97;;;;;;;18.63;70.69;97996.47;5025597;28;20475;-77
2023/07/16 04:25:01;;;;;;;6.50;2.20;;;;;;;18.77;71.46;97989.53;5027997;28;20467;-77
2023/07/16 04:27:28;;;;;;;5.80;1.93;;;;;;;18.74;70.01;97994.72;5026744;28;20456;-77
2023/07/16 04:29:56;;;;;;;4.30;2.00;;;;;;;18.74;70.32;97983.75;5027393;28;20452;-78
2023/07/16 04:32:23;;;;;;;8.17;2.40;;;;;;;18.65;69.97;97990.75;5022795;28;20559;-78
2023/07/16 04:34:50;;;;;;;4.63;2.00;;;;;;;18.71;71.08;97985.06;5027081;28;20663;-77
2023/07/16 04:37:17;;;;;;;3.90;2.20;;;;;;;18.70;72.47;97988.91;5028184;28;20462;-78
2023/07/16 04:39:45;;;;;;;3.90;2.10;;;;;;;18.57;70.57;98016.66;5008002;28;20460;-78
2023/07/16 04:42:12;;;;;;;3.47;2.10;;;;;;;18.65;71.12;98027.22;5020433;28;20479;-77
2023/07/16 04:44:39;;;;;;;6.43;2.27;;;;;;;18.74;72.59;98013.91;5025477;28;21111;-77
2023/07/16 04:47:05;;;;;;;3.37;2.43;;;;;;;18.84;73.25;98021.44;5028393;28;20455;-75
2023/07/16 04:49:34;;;;;;;5.60;2.53;;;;;;;18.57;72.85;98035.84;5025231;28;21416;-74
2023/07/16 04:52:01;;;;;;;5.57;1.90;;;;;;;18.62;73.14;98035.13;5026736;28;20574;-75
2023/07/16 04:54:27;;;;;;;6.40;1.90;;;;;;;18.48;74.98;98033.81;5029444;28;20480;-75
2023/07/16 04:56:56;;;;;;;4.50;2.47;;;;;;;18.39;76.77;98047.13;5029419;28;20554;-75
2023/07/16 04:59:22;;;;;;;4.73;2.50;;;;;;;18.29;77.10;98046.94;5043854;28;20452;-75
2023/07/16 05:01:49;;;;;;;2.87;2.63;;;;;;;18.58;76.40;98045.72;5040817;28;20513;-75
2023/07/16 05:04:16;;;;;;;3.73;2.03;;;;;;;18.64;73.61;98044.75;5025696;28;20546;-75
2023/07/16 05:06:43;;;;;;;3.77;2.00;;;;;;;18.57;72.48;98044.06;5028859;28;20463;-75
2023/07/16 05:09:10;;;;;;;2.53;2.07;;;;;;;18.67;73.25;98044.25;5028495;28;20456;-75
2023/07/16 05:11:37;;;;;;;2.97;1.90;;;;;;;18.69;72.26;98041.25;5028763;28;20511;-75
2023/07/16 05:14:06;;;;;;;2.43;1.73;;;;;;;18.50;71.59;98048.09;5027679;28;20460;-76
2023/07/16 05:16:32;;;;;;;3.50;2.17;;;;;;;18.50;71.56;98043.44;5027928;28;20464;-75
2023/07/16 05:18:59;;;;;;;5.47;2.10;;;;;;;18.56;69.82;98049.81;5028290;28;20540;-76
2023/07/16 05:21:26;;;;;;;3.93;2.30;;;;;;;18.50;71.04;98050.84;5018470;28;20530;-75
2023/07/16 05:23:52;;;;;;;3.50;2.40;;;;;;;18.70;70.13;98053.88;5027539;28;20462;-76
2023/07/16 05:26:20;;;;;;;6.20;2.20;;;;;;;18.57;71.07;98057.78;5028034;28;20475;-75
2023/07/16 05:28:46;;;;;;;2.40;2.20;;;;;;;18.73;69.84;98054.19;5028078;28;20451;-75
2023/07/16 05:31:14;;;;;;;4.83;2.20;;;;;;;18.57;69.40;98055.03;5026186;28;21529;-75
2023/07/16 05:33:41;;;;;;;2.80;1.93;;;;;;;18.66;68.75;98063.69;5027326;28;20689;-75
2023/07/16 05:36:08;;;;;;;4.23;2.07;;;;;;;18.64;68.63;98061.19;5026113;28;20539;-76
2023/07/16 05:38:35;;;;;;;3.83;2.27;;;;;;;18.81;68.59;98060.34;5015795;28;20592;-72
2023/07/16 05:41:03;;;;;;;3.30;2.47;;;;;;;18.98;68.23;98063.81;5022001;28;20514;-72
2023/07/16 05:43:30;;;;;;;4.50;2.17;;;;;;;19.10;68.14;98070.84;5012769;28;20463;-72
2023/07/16 05:45:56;;;;;;;2.60;2.00;;;;;;;19.16;67.66;98063.50;5018904;28;20926;-70
2023/07/16 05:48:25;;;;;;;5.37;2.00;;;;;;;19.13;66.73;98075.84;5024306;28;20460;-71
2023/07/16 05:50:51;;;;;;;4.10;2.00;;;;;;;19.35;67.09;98075.78;5024255;28;20553;-71
2023/07/16 05:53:18;;;;;;;3.03;1.80;;;;;;;19.45;66.96;98075.91;5022674;28;20529;-70
2023/07/16 05:55:45;;;;;;;6.27;2.50;;;;;;;19.25;67.41;98078.41;5015173;28;20548;-72
2023/07/16 05:58:12;;;;;;;3.80;2.00;;;;;;;19.20;68.40;98081.09;5022045;28;20517;-71
2023/07/16 06:00:39;;;;;;;3.03;1.77;;;;;;;19.61;66.57;98087.06;5024370;28;20460;-71
2023/07/16 06:03:06;;;;;;;2.83;2.13;;;;;;;19.52;65.72;98088.63;5026073;28;20589;-75
2023/07/16 06:05:36;;;;;;;3.20;1.97;;;;;;;19.28;67.28;98083.41;5027689;28;20507;-71
2023/07/16 06:08:03;;;;;;;4.87;2.33;;;;;;;19.45;66.39;98072.34;5024062;28;20995;-71
2023/07/16 06:10:30;;;;;;;5.10;2.57;;;;;;;19.65;66.15;98061.59;5027280;28;20461;-74
2023/07/16 06:12:57;;;;;;;3.60;1.80;;;;;;;20.08;64.59;98071.59;5019792;28;20501;-75
2023/07/16 06:15:24;;;;;;;3.87;2.10;;;;;;;19.71;66.08;98063.31;5024370;28;20819;-78
2023/07/16 06:17:51;;;;;;;4.47;3.07;;;;;;;19.57;67.24;98075.78;5025192;28;20561;-77
2023/07/16 06:20:18;;;;;;;4.40;2.30;;;;;;;19.62;66.62;98077.75;5026833;28;20457;-77
2023/07/16 06:22:46;;;;;;;5.60;2.57;;;;;;;19.69;65.24;98081.94;5024627;28;20569;-77
2023/07/16 06:25:13;;;;;;;4.20;2.40;;;;;;;19.82;65.65;98093.63;5018783;28;20465;-77
2023/07/16 06:27:40;;;;;;;2.03;1.83;;;;;;;19.57;65.96;98105.16;5025323;28;20454;-78
2023/07/16 06:30:08;;;;;;;3.90;2.87;;;;;;;19.58;66.12;98098.56;5023522;28;20527;-74
2023/07/16 06:32:35;;;;;;;3.10;2.70;;;;;;;19.77;65.06;98091.66;4994892;28;20487;-72
2023/07/16 06:35:01;;;;;;;3.83;2.10;;;;;;;19.74;64.95;98087.50;5024130;28;20514;-74
2023/07/16 06:37:29;;;;;;;6.23;2.13;;;;;;;19.83;65.40;98085.09;5022489;28;20456;-77
2023/07/16 06:39:57;;;;;;;5.20;3.33;;;;;;;20.09;66.01;98086.16;5014396;28;20467;-74
2023/07/16 06:42:24;;;;;;;4.50;2.40;;;;;;;20.24;65.62;98091.75;5007812;28;20502;-77
2023/07/16 06:44:51;;;;;;;5.33;2.43;;;;;;;20.47;65.15;98087.81;5027736;28;20832;-77
2023/07/16 06:47:18;;;;;;;4.07;1.90;;;;;;;20.49;63.56;98093.06;5025253;28;20455;-77
2023/07/16 06:49:45;;;;;;;2.27;1.50;;;;;;;20.18;61.64;98089.22;5018707;28;20545;-77
2023/07/16 06:52:19;;;;;;;2.73;1.70;;;;;;;20.25;63.49;98089.84;5018351;28;20499;-75
2023/07/16 06:54:46;;;;;;;5.13;1.90;;;;;;;20.13;61.84;98084.56;5023964;28;20463;-80
2023/07/16 06:57:14;;;;;;;3.80;2.10;;;;;;;20.22;62.09;98087.63;5014259;28;20457;-72
2023/07/16 06:59:41;;;;;;;2.80;1.87;;;;;;;20.13;62.79;98081.81;5018665;28;20539;-73
2023/07/16 07:02:08;;;;;;;2.73;1.90;;;;;;;20.08;62.32;98090.00;4971851;28;20516;-80
2023/07/16 07:04:35;;;;;;;4.13;2.13;;;;;;;20.12;62.55;98091.97;5006599;28;20452;-78
2023/07/16 07:07:01;;;;;;;2.80;2.23;;;;;;;19.97;63.14;98089.06;5027898;28;20788;-78
2023/07/16 07:09:29;;;;;;;6.00;2.63;;;;;;;19.88;63.02;98093.38;5030679;28;20537;-79
2023/07/16 07:11:56;;;;;;;3.67;2.57;;;;;;;19.91;64.88;98101.09;5017584;28;20483;-75
2023/07/16 07:14:24;;;;;;;4.67;2.03;;;;;;;20.35;62.66;98095.44;5026504;28;20491;-75
2023/07/16 07:16:51;;;;;;;4.07;2.50;;;;;;;20.39;63.56;98102.91;5015722;28;20472;-75
2023/07/16 07:19:17;;;;;;;5.33;2.03;;;;;;;20.05;64.53;98091.34;5021479;28;20467;-75
2023/07/16 07:21:44;;;;;;;4.23;2.00;;;;;;;19.90;63.95;98093.94;5024644;28;20571;-75
2023/07/16 07:24:11;;;;;;;2.80;1.80;;;;;;;20.29;63.64;98093.72;5025767;28;20844;-75
2023/07/16 07:26:38;;;;;;;4.10;2.00;;;;;;;20.39;62.64;98091.09;5024987;28;20454;-76
2023/07/16 07:29:05;;;;;;;3.23;2.03;;;;;;;20.78;62.25;98081.44;5019727;28;20460;-74
2023/07/16 07:31:33;;;;;;;4.37;2.00;;;;;;;20.75;59.53;98070.16;5017849;28;20579;-75
2023/07/16 07:34:00;;;;;;;2.77;1.77;;;;;;;20.84;57.37;98081.44;5015898;28;20539;-73
2023/07/16 07:36:27;;;;;;;5.97;2.80;;;;;;;20.86;59.30;98088.34;5017293;28;20552;-72
2023/07/16 07:38:54;;;;;;;2.27;1.83;;;;;;;21.26;58.59;98097.91;5024728;28;20458;-71
2023/07/16 07:41:21;;;;;;;3.03;1.93;;;;;;;21.60;57.83;98092.78;5024023;28;20567;-72
2023/07/16 07:43:47;;;;;;;4.00;1.80;;;;;;;21.29;56.98;98100.13;5038131;28;20452;-71
2023/07/16 07:46:14;;;;;;;3.10;2.00;;;;;;;21.29;56.08;98103.72;5023345;28;20452;-76
2023/07/16 07:48:43;;;;;;;4.60;2.67;;;;;;;21.29;57.44;98102.88;5021804;28;20514;-72
2023/07/16 07:51:10;;;;;;;4.80;1.80;;;;;;;21.19;55.13;98105.56;5023420;28;20498;-72
2023/07/16 07:53:36;;;;;;;3.83;1.97;;;;;;;21.23;55.83;98099.28;5028236;28;20464;-72
2023/07/16 07:56:04;;;;;;;3.40;1.90;;;;;;;21.18;55.49;98107.47;5030354;28;20848;-72
2023/07/16 07:58:30;;;;;;;2.97;1.70;;;;;;;21.06;55.52;98104.16;5029156;28;20483;-72
2023/07/16 08:00:57;;;;;;;4.50;2.20;;;;;;;20.93;55.06;98110.13;5028696;28;20484;-71
2023/07/16 08:03:24;;;;;;;2.40;2.03;;;;;;;21.00;55.35;98110.72;5027220;28;20509;-71
2023/07/16 08:05:52;;;;;;;7.63;2.30;;;;;;;21.04;55.46;98118.19;5028778;28;21015;-71
2023/07/16 08:08:19;;;;;;;3.03;1.90;;;;;;;21.20;56.20;98116.31;5022492;28;20460;-71
2023/07/16 08:10:46;;;;;;;3.27;2.00;;;;;;;21.14;55.94;98123.72;5025968;28;20475;-72
2023/07/16 08:13:13;;;;;;;3.70;2.10;;;;;;;21.17;55.56;98125.09;5028764;28;20479;-72
2023/07/16 08:15:40;;;;;;;2.80;1.83;;;;;;;21.09;56.20;98111.88;5029235;28;20479;-72
2023/07/16 08:18:07;;;;;;;3.13;1.83;;;;;;;21.72;54.88;98118.19;5021854;28;21033;-72
2023/07/16 08:20:33;;;;;;;3.00;1.80;;;;;;;21.68;53.82;98111.56;5028924;28;20916;-72
2023/07/16 08:23:02;;;;;;;3.00;1.87;;;;;;;21.69;54.77;98107.69;5028706;28;20487;-72
2023/07/16 08:25:29;;;;;;;4.60;1.90;;;;;;;22.11;53.98;98102.81;5028509;28;20531;-72
2023/07/16 08:27:56;;;;;;;3.37;2.23;;;;;;;21.79;51.90;98111.28;5021165;28;20560;-72
2023/07/16 08:30:23;;;;;;;3.83;2.03;;;;;;;22.05;53.13;98105.84;5024891;28;20472;-71
2023/07/16 08:32:49;;;;;;;2.40;1.90;;;;;;;22.73;52.16;98101.69;5027332;28;20526;-72
2023/07/16 08:35:19;;;;;;;2.43;1.57;;;;;;;23.17;50.01;98092.72;5029196;28;21036;-71
2023/07/16 08:37:47;;;;;;;2.57;1.63;;;;;;;23.16;48.81;98081.94;5023455;28;20545;-71
2023/07/16 08:40:15;;;;;;;3.20;2.00;;;;;;;23.53;47.97;98076.84;5028029;28;20472;-71
2023/07/16 08:42:45;;;;;;;2.70;1.80;;;;;;;23.06;48.54;98089.19;5028230;28;21053;-72
2023/07/16 08:45:12;;;;;;;2.27;1.60;;;;;;;22.38;49.64;98104.47;5029054;28;21203;-71
2023/07/16 08:47:39;;;;;;;3.20;1.90;;;;;;;22.65;50.55;98102.25;5026303;28;20864;-71
2023/07/16 08:50:06;;;;;;;2.47;1.97;;;;;;;23.28;48.58;98091.56;5027857;28;20888;-71
2023/07/16 08:52:35;;;;;;;6.00;2.10;;;;;;;22.79;50.34;98086.75;5020569;28;21285;-71
2023/07/16 08:55:01;;;;;;;3.50;2.00;;;;;;;22.75;50.04;98098.59;5027579;28;20502;-71
2023/07/16 08:57:30;;;;;;;3.90;2.20;;;;;;;22.55;51.80;98101.41;5025891;28;20864;-71
2023/07/16 08:59:57;;;;;;;5.40;2.23;;;;;;;22.74;50.54;98102.50;5027501;28;20448;-71
2023/07/16 09:02:24;;;;;;;2.83;2.03;;;;;;;22.73;50.83;98114.66;5021146;28;20452;-71
2023/07/16 09:04:51;;;;;;;5.40;2.03;;;;;;;22.60;50.89;98110.50;5027942;28;20456;-71
2023/07/16 09:07:19;;;;;;;2.07;1.70;;;;;;;22.56;51.63;98125.13;5028937;28;20456;-71
2023/07/16 09:09:57;;;;;;;2.00;1.67;;;;;;;22.24;51.91;98125.44;5027682;28;20870;-71
2023/07/16 09:12:24;;;;;;;3.40;2.03;;;;;;;22.04;51.78;98121.56;5026293;28;20487;-71
2023/07/16 09:14:53;;;;;;;4.50;2.73;;;;;;;22.16;52.71;98121.28;5021314;28;20492;-72
2023/07/16 09:17:21;;;;;;;5.10;3.37;;;;;;;22.26;52.07;98117.72;5026684;28;20697;-71
2023/07/16 09:19:48;;;;;;;3.27;2.10;;;;;;;22.97;50.60;98112.13;5028342;28;20455;-71
2023/07/16 09:22:17;;;;;;;8.93;8.13;;;;;;;23.37;49.20;98113.91;5027925;28;20460;-71
2023/07/16 09:24:46;;;;;;;4.77;3.40;;;;;;;23.43;48.77;98116.34;5020124;28;20479;-72
2023/07/16 09:27:13;;;;;;;4.77;3.40;;;;;;;23.38;48.36;98113.63;5027597;28;20535;-71
2023/07/16 09:29:40;;;;;;;2.60;2.10;;;;;;;23.68;49.08;98112.69;5027949;28;20452;-72
2023/07/16 09:32:08;;;;;;;3.57;2.10;;;;;;;23.81;47.84;98110.38;5026442;28;21180;-71
2023/07/16 09:34:35;;;;;;;3.23;2.20;;;;;;;23.00;49.40;98117.09;5023138;28;20531;-72
2023/07/16 09:37:03;;;;;;;3.50;2.30;;;;;;;23.34;48.96;98118.06;5024154;28;20488;-71
2023/07/16 09:39:30;;;;;;;4.70;2.00;;;;;;;23.86;46.56;98115.88;5013717;28;20460;-71
2023/07/16 09:41:57;;;;;;;5.47;2.30;;;;;;;23.69;47.02;98121.81;5031352;28;20514;-71
2023/07/16 09:44:24;;;;;;;4.13;2.00;;;;;;;24.12;46.91;98114.59;5031737;28;20456;-71
2023/07/16 09:46:50;;;;;;;3.10;1.60;;;;;;;24.61;44.63;98120.03;5032505;28;20792;-71
2023/07/16 09:49:19;;;;;;;3.73;2.10;;;;;;;24.83;45.54;98102.91;5030192;28;20542;-71
2023/07/16 09:51:46;;;;;;;2.30;1.90;;;;;;;24.88;45.64;98102.03;5028647;28;20525;-71
2023/07/16 09:54:14;;;;;;;3.07;2.30;;;;;;;24.85;43.52;98105.38;5028121;28;20502;-72
2023/07/16 09:56:44;;;;;;;3.10;2.17;;;;;;;24.64;44.76;98113.09;5020522;28;20493;-71
2023/07/16 09:59:13;;;;;;;2.97;1.97;;;;;;;24.44;44.86;98108.53;5031601;28;20453;-71
2023/07/16 10:01:43;;;;;;;3.50;2.00;;;;;;;24.52;44.25;98099.63;5031657;28;20475;-71
2023/07/16 10:04:14;;;;;;;3.00;2.20;;;;;;;24.71;45.35;98105.25;5031470;28;20454;-71
2023/07/16 10:06:51;;;;;;;4.07;1.97;;;;;;;25.47;43.01;98111.88;5030612;28;20482;-71
2023/07/16 10:09:36;;;;;;;2.67;1.73;;;;;;;25.26;43.93;98098.31;5032528;28;20450;-71
2023/07/16 10:12:12;;;;;;;4.60;2.07;;;;;;;26.10;40.58;98102.13;5026190;28;20835;-72
2023/07/16 10:14:41;;;;;;;3.00;2.10;;;;;;;26.26;40.20;98110.22;5031095;28;20455;-72
2023/07/16 10:17:07;;;;;;;4.23;2.40;;;;;;;25.74;41.66;98114.88;5032417;28;20853;-73
2023/07/16 10:19:47;;;;;;;2.47;2.10;;;;;;;24.98;42.05;98119.41;5032650;28;20452;-71
2023/07/16 10:22:15;;;;;;;3.67;1.80;;;;;;;24.49;44.21;98111.28;5030073;28;20455;-72
2023/07/16 10:24:42;;;;;;;3.03;1.83;;;;;;;25.24;43.93;98100.53;5025874;28;20565;-71
2023/07/16 10:27:09;;;;;;;2.00;1.80;;;;;;;26.44;41.24;98106.59;5035293;28;20444;-72
2023/07/16 10:29:36;;;;;;;3.50;2.50;;;;;;;26.61;39.82;98095.78;5046196;28;20468;-71
2023/07/16 10:32:03;;;;;;;2.30;1.80;;;;;;;26.49;39.53;98103.75;5041379;28;20456;-72
2023/07/16 10:34:30;;;;;;;2.73;2.00;;;;;;;27.15;39.35;98105.31;5041755;28;20436;-71
2023/07/16 10:36:57;;;;;;;2.97;2.13;;;;;;;27.80;38.05;98099.53;5052205;28;20497;-71
2023/07/16 10:39:25;;;;;;;2.30;2.00;;;;;;;27.60;37.93;98094.41;5038053;28;20463;-72
2023/07/16 10:41:52;;;;;;;3.23;1.90;;;;;;;28.22;36.15;98094.69;5032950;28;20456;-71
2023/07/16 10:44:21;;;;;;;2.33;1.87;;;;;;;28.26;36.65;98090.94;5024896;28;20496;-72
2023/07/16 10:46:48;;;;;;;3.30;1.83;;;;;;;29.09;34.63;98085.72;5030615;28;20470;-71
2023/07/16 10:49:14;;;;;;;3.00;1.93;;;;;;;27.93;36.10;98084.75;5031842;28;20547;-71
2023/07/16 10:51:41;;;;;;;1.70;1.60;;;;;;;28.64;35.35;98085.78;5031848;28;20510;-71
2023/07/16 10:54:08;;;;;;;3.57;1.93;;;;;;;28.09;36.53;98091.59;5030758;28;20594;-71
2023/07/16 10:56:37;;;;;;;3.30;1.80;;;;;;;27.39;38.62;98100.38;5031890;28;20509;-71
2023/07/16 10:59:04;;;;;;;3.70;2.20;;;;;;;26.52;39.67;98085.66;5026279;28;20460;-71
2023/07/16 11:01:34;;;;;;;3.47;2.30;;;;;;;26.64;39.76;98080.44;5025005;28;20495;-72
2023/07/16 11:04:02;;;;;;;3.40;2.10;;;;;;;27.24;37.81;98081.25;5024549;28;20529;-72
2023/07/16 11:06:29;;;;;;;2.53;2.23;;;;;;;27.40;38.57;98085.34;5030589;28;20577;-72
2023/07/16 11:08:56;;;;;;;3.10;2.20;;;;;;;26.80;40.11;98084.56;5030629;28;20445;-72
2023/07/16 11:11:29;;;;;;;2.77;2.10;;;;;;;26.21;41.51;98083.38;5030330;28;20469;-71
2023/07/16 11:13:58;;;;;;;4.20;2.17;;;;;;;26.35;40.75;98087.03;5023211;28;20571;-72
2023/07/16 11:16:24;;;;;;;4.53;3.30;;;;;;;27.65;37.25;98094.28;5030964;28;20452;-71
2023/07/16 11:18:52;;;;;;;2.27;1.93;;;;;;;29.12;35.92;98082.28;5024569;28;20464;-73
2023/07/16 11:21:19;;;;;;;2.37;2.17;;;;;;;29.48;34.08;98075.69;5028642;28;20474;-71
2023/07/16 11:23:46;;;;;;;2.43;1.80;;;;;;;30.32;31.97;98072.47;5024881;28;20488;-72
2023/07/16 11:26:13;;;;;;;1.87;1.77;;;;;;;29.96;32.49;98064.41;5029538;28;20956;-73
2023/07/16 11:28:41;;;;;;;2.90;2.10;;;;;;;29.12;33.21;98073.91;5024528;28;20530;-72
2023/07/16 11:31:14;;;;;;;2.40;1.97;;;;;;;30.12;32.87;98073.16;5028960;28;21025;-73
2023/07/16 11:33:43;;;;;;;2.37;1.90;;;;;;;30.57;31.74;98073.63;5030183;28;21026;-73
2023/07/16 11:36:10;;;;;;;2.10;1.80;;;;;;;31.09;31.33;98068.69;5023975;28;20452;-73